createdAt,value
2019-03-21T00:00:35.024Z,2.60
2019-03-21T00:03:23.804Z,3.00
2019-03-21T00:06:14.961Z,3.30
2019-03-21T00:09:05.515Z,3.00
2019-03-21T00:12:05.913Z,2.87
2019-03-21T00:14:57.803Z,2.80
2019-03-21T00:17:49.247Z,2.60
2019-03-21T00:20:37.721Z,2.97
2019-03-21T00:23:26.351Z,2.70
2019-03-21T00:26:15.956Z,2.70
2019-03-21T00:29:05.004Z,3.60
2019-03-21T00:31:53.315Z,2.17
2019-03-21T00:34:41.813Z,2.50
2019-03-21T00:37:30.357Z,2.77
2019-03-21T00:40:24.609Z,3.17
2019-03-21T00:43:14.186Z,3.17
2019-03-21T00:46:03.928Z,2.93
2019-03-21T00:48:52.449Z,2.67
2019-03-21T00:51:40.752Z,2.40
2019-03-21T00:54:29.484Z,2.97
2019-03-21T00:57:18.496Z,2.30
2019-03-21T01:00:13.132Z,2.20
2019-03-21T01:03:03.561Z,2.53
2019-03-21T01:05:51.210Z,2.30
2019-03-21T01:08:39.363Z,3.30
2019-03-21T01:11:27.655Z,3.03
2019-03-21T01:14:16.008Z,2.30
2019-03-21T01:17:04.540Z,3.20
2019-03-21T01:19:52.698Z,2.30
2019-03-21T01:22:41.589Z,2.40
2019-03-21T01:25:38.982Z,3.00
2019-03-21T01:28:27.290Z,2.70
2019-03-21T01:31:15.684Z,2.30
2019-03-21T01:34:04.294Z,2.30
2019-03-21T01:36:52.534Z,3.40
2019-03-21T01:39:40.761Z,2.53
2019-03-21T01:42:28.880Z,2.20
2019-03-21T01:45:23.682Z,2.60
2019-03-21T01:48:13.131Z,2.50
2019-03-21T01:51:02.947Z,1.93
2019-03-21T01:53:52.926Z,2.47
2019-03-21T01:56:41.402Z,2.50
2019-03-21T01:59:29.728Z,2.13
2019-03-21T02:02:18.116Z,2.57
2019-03-21T02:05:09.454Z,2.43
2019-03-21T02:07:58.078Z,2.13
2019-03-21T02:10:46.199Z,2.70
2019-03-21T02:13:34.607Z,2.40
2019-03-21T02:16:22.845Z,2.70
2019-03-21T02:19:11.062Z,2.30
2019-03-21T02:21:59.087Z,2.20
2019-03-21T02:24:49.318Z,2.73
2019-03-21T02:27:37.931Z,2.47
2019-03-21T02:30:43.582Z,2.50
2019-03-21T02:33:34.457Z,2.40
2019-03-21T02:36:22.877Z,2.60
2019-03-21T02:39:11.237Z,2.57
2019-03-21T02:41:59.627Z,2.10
2019-03-21T02:44:48.137Z,2.13
2019-03-21T02:47:36.619Z,2.30
2019-03-21T02:50:31.256Z,2.17
2019-03-21T02:53:19.397Z,2.10
2019-03-21T02:56:13.589Z,2.20
2019-03-21T02:59:02.411Z,2.40
2019-03-21T03:01:50.573Z,3.17
2019-03-21T03:04:39.055Z,3.07
2019-03-21T03:07:28.131Z,2.30
2019-03-21T03:10:22.510Z,3.10
2019-03-21T03:13:10.985Z,2.47
2019-03-21T03:15:59.245Z,2.80
2019-03-21T03:18:47.832Z,2.90
2019-03-21T03:21:36.763Z,3.00
2019-03-21T03:24:26.147Z,2.70
2019-03-21T03:27:14.626Z,2.60
2019-03-21T03:30:03.321Z,2.40
2019-03-21T03:32:51.883Z,2.93
2019-03-21T03:35:40.268Z,2.87
2019-03-21T03:38:29.308Z,2.70
2019-03-21T03:41:21.869Z,2.70
2019-03-21T03:44:10.081Z,2.57
2019-03-21T03:46:58.596Z,2.60
2019-03-21T03:49:47.994Z,2.97
2019-03-21T03:52:36.195Z,3.03
2019-03-21T03:55:24.555Z,2.50
2019-03-21T03:58:19.180Z,2.50
2019-03-21T04:01:07.843Z,2.70
2019-03-21T04:03:56.552Z,2.87
2019-03-21T04:06:45.068Z,3.23
2019-03-21T04:09:33.520Z,2.87
2019-03-21T04:12:22.229Z,2.47
2019-03-21T04:15:14.193Z,2.27
2019-03-21T04:18:03.111Z,2.40
2019-03-21T04:21:06.379Z,2.77
2019-03-21T04:23:55.345Z,3.07
2019-03-21T04:26:31.896Z,2.60
2019-03-21T04:29:20.007Z,2.30
2019-03-21T04:32:08.683Z,2.00
2019-03-21T04:34:56.755Z,2.33
2019-03-21T04:37:45.974Z,3.00
2019-03-21T04:40:34.990Z,2.07
2019-03-21T04:43:23.950Z,3.00
2019-03-21T04:46:12.690Z,2.47
2019-03-21T04:49:01.111Z,2.50
2019-03-21T04:51:49.550Z,1.97
2019-03-21T04:54:38.216Z,2.73
2019-03-21T04:57:27.338Z,2.40
2019-03-21T05:00:24.648Z,2.97
2019-03-21T05:03:16.166Z,2.60
2019-03-21T05:06:05.593Z,2.20
2019-03-21T05:08:55.087Z,2.60
2019-03-21T05:11:44.029Z,2.70
2019-03-21T05:14:32.368Z,2.40
2019-03-21T05:17:21.274Z,2.40
2019-03-21T05:20:15.759Z,2.17
2019-03-21T05:23:03.853Z,2.20
2019-03-21T05:25:52.834Z,2.47
2019-03-21T05:28:41.414Z,2.70
2019-03-21T05:31:35.242Z,2.17
2019-03-21T05:34:23.661Z,2.70
2019-03-21T05:37:12.173Z,2.50
2019-03-21T05:40:00.951Z,2.37
2019-03-21T05:42:57.822Z,2.60
2019-03-21T05:45:46.307Z,2.17
2019-03-21T05:48:34.585Z,4.00
2019-03-21T05:51:23.017Z,4.67
2019-03-21T05:54:11.163Z,4.70
2019-03-21T05:56:59.704Z,4.80
2019-03-21T05:59:47.991Z,4.27
2019-03-21T06:02:36.237Z,3.13
2019-03-21T06:05:25.269Z,3.70
2019-03-21T06:08:25.864Z,3.03
2019-03-21T06:11:14.513Z,3.57
2019-03-21T06:14:03.040Z,3.13
2019-03-21T06:16:51.551Z,3.53
2019-03-21T06:19:49.077Z,3.03
2019-03-21T06:23:01.363Z,3.20
2019-03-21T06:26:08.979Z,3.10
2019-03-21T06:28:57.228Z,3.47
2019-03-21T06:31:45.308Z,3.43
2019-03-21T06:34:33.876Z,4.10
2019-03-21T06:37:22.847Z,3.77
2019-03-21T06:40:11.303Z,3.50
2019-03-21T06:42:59.898Z,3.47
2019-03-21T06:45:48.522Z,4.50
2019-03-21T06:48:36.918Z,5.70
2019-03-21T06:51:25.950Z,5.47
2019-03-21T06:54:14.478Z,6.10
2019-03-21T06:57:04.129Z,5.30
2019-03-21T06:59:52.698Z,5.70
2019-03-21T07:02:41.122Z,6.00
2019-03-21T07:05:29.644Z,5.80
2019-03-21T07:08:17.856Z,6.53
2019-03-21T07:11:06.744Z,5.53
2019-03-21T07:13:55.548Z,6.10
2019-03-21T07:16:44.148Z,5.20
2019-03-21T07:19:33.069Z,5.40
2019-03-21T07:22:21.005Z,5.97
2019-03-21T07:25:10.773Z,5.87
2019-03-21T07:27:59.200Z,6.50
2019-03-21T07:30:48.044Z,5.80
2019-03-21T07:33:37.145Z,5.87
2019-03-21T07:36:26.329Z,6.97
2019-03-21T07:38:57.289Z,6.70
2019-03-21T07:41:28.052Z,6.10
2019-03-21T07:43:58.696Z,5.90
2019-03-21T07:46:31.941Z,6.33
2019-03-21T07:49:01.889Z,7.30
2019-03-21T07:51:50.176Z,5.67
2019-03-21T07:54:38.564Z,5.07
2019-03-21T07:57:27.128Z,6.10
2019-03-21T08:00:18.259Z,5.73
2019-03-21T08:03:07.122Z,6.53
2019-03-21T08:05:55.817Z,6.23
2019-03-21T08:08:44.541Z,5.40
2019-03-21T08:11:32.668Z,5.87
2019-03-21T08:14:20.986Z,6.27
2019-03-21T08:17:09.625Z,6.13
2019-03-21T08:19:57.958Z,5.20
2019-03-21T08:22:46.520Z,5.93
2019-03-21T08:25:34.896Z,5.80
2019-03-21T08:28:22.927Z,5.10
2019-03-21T08:31:14.581Z,5.57
2019-03-21T08:34:02.601Z,5.07
2019-03-21T08:36:50.829Z,5.07
2019-03-21T08:39:41.047Z,4.93
2019-03-21T08:42:29.910Z,5.17
2019-03-21T08:45:18.357Z,4.40
2019-03-21T08:48:08.200Z,5.07
2019-03-21T08:51:07.790Z,4.87
2019-03-21T08:53:48.772Z,5.50
2019-03-21T08:56:37.259Z,5.43
2019-03-21T08:59:26.176Z,6.03
2019-03-21T09:02:15.198Z,5.77
2019-03-21T09:05:07.101Z,5.60
2019-03-21T09:07:55.711Z,5.93
2019-03-21T09:10:44.248Z,5.70
2019-03-21T09:13:33.841Z,5.10
2019-03-21T09:16:22.030Z,6.47
2019-03-21T09:19:10.263Z,5.43
2019-03-21T09:21:59.579Z,6.03
2019-03-21T09:24:47.843Z,6.00
2019-03-21T09:27:36.893Z,6.10
2019-03-21T09:30:25.088Z,6.17
2019-03-21T09:33:13.344Z,5.67
2019-03-21T09:36:02.127Z,5.53
2019-03-21T09:38:51.023Z,6.07
2019-03-21T09:41:39.490Z,4.70
2019-03-21T09:44:29.019Z,5.60
2019-03-21T09:47:17.896Z,5.93
2019-03-21T09:50:08.578Z,5.47
2019-03-21T09:52:57.184Z,4.63
2019-03-21T09:55:45.770Z,4.97
2019-03-21T09:58:34.313Z,5.13
2019-03-21T10:01:22.268Z,4.57
2019-03-21T10:04:10.559Z,4.53
2019-03-21T10:06:59.142Z,4.47
2019-03-21T10:09:47.355Z,4.23
2019-03-21T10:12:35.695Z,4.57
2019-03-21T10:15:24.384Z,4.80
2019-03-21T10:18:12.758Z,3.60
2019-03-21T10:21:01.081Z,3.57
2019-03-21T10:23:49.527Z,4.10
2019-03-21T10:26:38.350Z,4.70
2019-03-21T10:29:26.458Z,4.10
2019-03-21T10:32:15.168Z,4.17
2019-03-21T10:35:04.068Z,4.60
2019-03-21T10:37:52.501Z,3.53
2019-03-21T10:40:41.322Z,3.50
2019-03-21T10:43:29.803Z,3.67
2019-03-21T10:46:18.117Z,3.60
2019-03-21T10:49:06.327Z,4.30
2019-03-21T10:51:55.465Z,3.20
2019-03-21T10:54:44.084Z,3.20
2019-03-21T10:57:32.713Z,3.47
2019-03-21T11:00:22.499Z,3.50
2019-03-21T11:03:11.279Z,3.40
2019-03-21T11:05:59.694Z,3.20
2019-03-21T11:08:47.995Z,3.07
2019-03-21T11:11:36.579Z,3.40
2019-03-21T11:14:25.147Z,3.50
2019-03-21T11:17:13.656Z,2.87
2019-03-21T11:20:03.290Z,4.17
2019-03-21T11:22:52.018Z,3.20
2019-03-21T11:25:40.084Z,3.97
2019-03-21T11:28:28.436Z,3.40
2019-03-21T11:31:16.525Z,3.73
2019-03-21T11:34:05.029Z,2.90
2019-03-21T11:36:53.458Z,2.97
2019-03-21T11:39:42.307Z,3.37
2019-03-21T11:42:31.273Z,3.03
2019-03-21T11:45:20.028Z,3.20
2019-03-21T11:48:08.351Z,3.87
2019-03-21T11:50:56.767Z,3.67
2019-03-21T11:53:44.993Z,3.50
2019-03-21T11:56:33.078Z,3.90
2019-03-21T11:59:22.371Z,3.67
2019-03-21T12:02:10.938Z,3.80
2019-03-21T12:04:59.405Z,4.53
2019-03-21T12:07:48.485Z,4.30
2019-03-21T12:10:37.189Z,3.70
2019-03-21T12:13:25.536Z,5.67
2019-03-21T12:16:13.709Z,4.83
2019-03-21T12:19:01.994Z,5.33
2019-03-21T12:21:50.154Z,4.40
2019-03-21T12:24:38.285Z,5.33
2019-03-21T12:27:27.388Z,5.17
2019-03-21T12:30:18.844Z,4.63
2019-03-21T12:33:08.146Z,5.20
2019-03-21T12:35:57.234Z,4.30
2019-03-21T12:38:45.435Z,4.87
2019-03-21T12:41:33.916Z,3.77
2019-03-21T12:44:22.688Z,3.00
2019-03-21T12:47:10.992Z,4.10
2019-03-21T12:49:59.555Z,3.60
2019-03-21T12:52:48.046Z,3.50
2019-03-21T12:55:36.541Z,3.83
2019-03-21T12:58:24.768Z,4.00
2019-03-21T13:01:15.251Z,3.30
2019-03-21T13:03:47.488Z,3.60
2019-03-21T13:06:18.160Z,3.10
2019-03-21T13:08:50.857Z,5.83
2019-03-21T13:11:21.777Z,5.97
2019-03-21T13:14:09.932Z,6.77
2019-03-21T13:16:58.568Z,7.33
2019-03-21T13:19:47.041Z,7.33
2019-03-21T13:22:35.148Z,6.70
2019-03-21T13:25:23.453Z,6.07
2019-03-21T13:28:12.968Z,6.90
2019-03-21T13:31:01.304Z,8.10
2019-03-21T13:33:50.154Z,7.60
2019-03-21T13:36:20.783Z,8.10
2019-03-21T13:38:51.449Z,7.30
2019-03-21T13:41:22.088Z,6.53
2019-03-21T13:43:53.019Z,7.07
2019-03-21T13:46:23.695Z,7.63
2019-03-21T13:48:54.890Z,6.40
2019-03-21T13:51:43.328Z,7.47
2019-03-21T13:54:31.592Z,5.70
2019-03-21T13:57:02.720Z,6.80
2019-03-21T13:59:33.355Z,8.03
2019-03-21T14:02:04.851Z,7.07
2019-03-21T14:04:35.578Z,5.00
2019-03-21T14:07:06.310Z,5.30
2019-03-21T14:09:36.949Z,5.63
2019-03-21T14:12:07.720Z,4.90
2019-03-21T14:14:38.784Z,6.30
2019-03-21T14:17:21.315Z,5.37
2019-03-21T14:19:42.987Z,6.40
2019-03-21T14:22:13.641Z,5.63
2019-03-21T14:24:44.263Z,5.03
2019-03-21T14:27:14.915Z,4.93
2019-03-21T14:29:45.733Z,6.43
2019-03-21T14:32:16.839Z,5.10
2019-03-21T14:34:47.862Z,6.00
2019-03-21T14:37:18.491Z,5.23
2019-03-21T14:39:49.158Z,5.20
2019-03-21T14:42:20.137Z,5.77
2019-03-21T14:44:50.809Z,4.83
2019-03-21T14:47:21.599Z,4.90
2019-03-21T14:49:53.206Z,4.67
2019-03-21T14:52:41.653Z,5.47
2019-03-21T14:55:30.376Z,5.17
2019-03-21T14:58:19.125Z,5.63
2019-03-21T15:01:08.063Z,5.03
2019-03-21T15:03:56.701Z,5.23
2019-03-21T15:06:44.893Z,5.40
2019-03-21T15:09:33.933Z,5.67
2019-03-21T15:12:21.873Z,5.67
2019-03-21T15:15:12.886Z,5.30
2019-03-21T15:18:01.241Z,5.80
2019-03-21T15:20:32.359Z,6.00
2019-03-21T15:23:03.037Z,6.10
2019-03-21T15:25:33.749Z,6.10
2019-03-21T15:28:04.349Z,6.50
2019-03-21T15:30:35.109Z,5.47
2019-03-21T15:33:06.308Z,7.23
2019-03-21T15:35:36.971Z,5.90
2019-03-21T15:38:07.803Z,5.17
2019-03-21T15:40:38.576Z,5.70
2019-03-21T15:43:09.302Z,4.93
2019-03-21T15:45:40.033Z,4.87
2019-03-21T15:48:10.686Z,5.53
2019-03-21T15:50:41.819Z,5.00
2019-03-21T15:53:12.466Z,5.13
2019-03-21T15:55:43.200Z,5.70
2019-03-21T16:00:44.560Z,5.00
2019-03-21T16:03:15.325Z,4.67
2019-03-21T16:05:46.056Z,4.60
2019-03-21T16:08:17.137Z,5.23
2019-03-21T16:10:47.923Z,5.63
2019-03-21T16:13:18.726Z,4.73
2019-03-21T16:15:49.375Z,4.70
2019-03-21T16:18:20.112Z,4.87
2019-03-21T16:20:50.778Z,5.53
2019-03-21T16:23:21.600Z,5.33
2019-03-21T16:25:52.266Z,4.77
2019-03-21T16:28:40.855Z,4.50
2019-03-21T16:31:20.639Z,4.70
2019-03-21T16:33:52.866Z,5.27
2019-03-21T16:36:25.121Z,4.30
2019-03-21T16:39:15.167Z,4.70
2019-03-21T16:41:45.872Z,4.63
2019-03-21T16:44:16.504Z,4.60
2019-03-21T16:49:48.863Z,4.00
2019-03-21T16:52:22.877Z,4.20
2019-03-21T16:54:53.525Z,4.60
2019-03-21T16:57:24.272Z,5.63
2019-03-21T16:59:54.997Z,4.60
2019-03-21T17:02:25.651Z,4.87
2019-03-21T17:05:14.284Z,4.40
2019-03-21T17:08:11.236Z,4.60
2019-03-21T17:10:52.696Z,4.70
2019-03-21T17:13:41.175Z,4.53
2019-03-21T17:16:29.242Z,5.00
2019-03-21T17:19:17.226Z,4.23
2019-03-21T17:22:05.559Z,4.00
2019-03-21T17:24:53.736Z,4.97
2019-03-21T17:27:42.089Z,4.50
2019-03-21T17:30:27.867Z,4.13
2019-03-21T17:33:00.143Z,4.87
2019-03-21T17:35:30.872Z,4.43
2019-03-21T17:38:01.506Z,3.67
2019-03-21T17:40:32.139Z,4.37
2019-03-21T17:43:02.859Z,4.07
2019-03-21T17:45:51.045Z,4.60
2019-03-21T17:48:39.591Z,3.93
2019-03-21T17:51:28.126Z,4.47
2019-03-21T17:53:58.812Z,4.67
2019-03-21T17:56:47.088Z,4.00
2019-03-21T17:59:35.444Z,5.80
2019-03-21T18:02:23.842Z,3.93
2019-03-21T18:05:12.455Z,4.57
2019-03-21T18:08:00.872Z,4.80
2019-03-21T18:10:49.813Z,4.90
2019-03-21T18:13:38.208Z,5.40
2019-03-21T18:16:26.687Z,5.07
2019-03-21T18:19:14.833Z,5.10
2019-03-21T18:22:02.965Z,5.37
2019-03-21T18:24:54.106Z,4.80
2019-03-21T18:27:40.911Z,6.20
2019-03-21T18:30:29.330Z,5.70
2019-03-21T18:33:19.279Z,5.63
2019-03-21T18:36:07.653Z,5.57
2019-03-21T18:38:59.410Z,6.07
2019-03-21T18:41:46.292Z,6.40
2019-03-21T18:44:36.327Z,7.20
2019-03-21T18:47:24.436Z,6.33
2019-03-21T18:50:14.356Z,6.80
2019-03-21T18:53:05.035Z,5.70
2019-03-21T18:55:53.427Z,6.23
2019-03-21T18:58:41.710Z,6.43
2019-03-21T19:01:29.963Z,7.43
2019-03-21T19:04:18.558Z,6.53
2019-03-21T19:07:07.264Z,6.50
2019-03-21T19:09:55.856Z,6.50
2019-03-21T19:12:44.599Z,6.57
2019-03-21T19:15:32.823Z,6.53
2019-03-21T19:18:21.094Z,6.93
2019-03-21T19:21:09.427Z,6.50
2019-03-21T19:23:57.772Z,7.30
2019-03-21T19:26:46.549Z,6.80
2019-03-21T19:29:35.108Z,7.47
2019-03-21T19:32:23.168Z,7.20
2019-03-21T19:35:11.834Z,6.80
2019-03-21T19:38:01.744Z,6.23
2019-03-21T19:40:50.236Z,6.93
2019-03-21T19:43:38.667Z,6.47
2019-03-21T19:46:27.286Z,7.07
2019-03-21T19:49:15.770Z,7.60
2019-03-21T19:52:05.562Z,7.10
2019-03-21T19:54:55.418Z,7.50
2019-03-21T19:57:26.993Z,7.37
2019-03-21T20:00:23.218Z,7.53
2019-03-21T20:03:11.557Z,6.83
2019-03-21T20:06:00.684Z,7.90
2019-03-21T20:08:49.185Z,7.13
2019-03-21T20:11:37.827Z,7.13
2019-03-21T20:14:25.915Z,7.90
2019-03-21T20:17:14.546Z,7.30
2019-03-21T20:20:04.231Z,8.43
2019-03-21T20:22:52.618Z,8.50
2019-03-21T20:25:43.069Z,10.50
2019-03-21T20:28:31.534Z,10.13
2019-03-21T20:31:20.054Z,10.30
2019-03-21T20:34:08.750Z,9.20
2019-03-21T20:36:57.542Z,8.37
2019-03-21T20:39:45.836Z,8.27
2019-03-21T20:42:34.089Z,8.10
2019-03-21T20:45:23.693Z,7.47
2019-03-21T20:48:12.238Z,7.60
2019-03-21T20:51:00.918Z,6.97
2019-03-21T20:53:49.271Z,6.90
2019-03-21T20:56:37.521Z,6.87
2019-03-21T20:59:25.730Z,6.30
2019-03-21T21:02:14.513Z,6.23
2019-03-21T21:05:03.103Z,6.37
2019-03-21T21:07:51.480Z,6.40
2019-03-21T21:10:42.980Z,5.70
2019-03-21T21:13:31.544Z,4.83
2019-03-21T21:16:19.919Z,4.80
2019-03-21T21:19:08.180Z,5.23
2019-03-21T21:21:56.637Z,4.80
2019-03-21T21:24:44.839Z,4.67
2019-03-21T21:27:33.243Z,4.40
2019-03-21T21:30:23.262Z,5.67
2019-03-21T21:33:11.511Z,4.87
2019-03-21T21:35:59.986Z,4.33
2019-03-21T21:38:47.963Z,4.27
2019-03-21T21:41:36.557Z,4.90
2019-03-21T21:44:24.913Z,4.90
2019-03-21T21:47:13.281Z,4.40
2019-03-21T21:50:01.598Z,4.43
2019-03-21T21:52:49.678Z,4.80
2019-03-21T21:55:37.796Z,4.47
2019-03-21T21:58:08.433Z,5.50
2019-03-21T22:00:56.584Z,4.50
2019-03-21T22:03:46.206Z,4.60
2019-03-21T22:06:34.514Z,3.80
2019-03-21T22:09:22.816Z,4.30
2019-03-21T22:12:11.164Z,3.53
2019-03-21T22:14:59.488Z,6.33
2019-03-21T22:17:47.526Z,7.00
2019-03-21T22:20:35.508Z,7.80
2019-03-21T22:23:23.632Z,7.60
2019-03-21T22:26:11.788Z,8.10
2019-03-21T22:31:53.077Z,9.77
2019-03-21T22:34:47.636Z,10.30
2019-03-21T22:53:55.612Z,10.00
2019-03-21T22:56:43.904Z,8.70
2019-03-21T22:59:32.720Z,8.97
2019-03-21T23:02:21.154Z,8.90
2019-03-21T23:05:10.640Z,9.43
2019-03-21T23:07:59.186Z,9.37
2019-03-21T23:10:47.460Z,9.43
2019-03-21T23:13:35.651Z,8.77
2019-03-21T23:16:24.893Z,7.73
2019-03-21T23:19:13.753Z,8.47
2019-03-21T23:22:02.190Z,9.50
2019-03-21T23:24:50.733Z,7.97
2019-03-21T23:27:38.909Z,7.60
2019-03-21T23:30:27.671Z,7.00
2019-03-21T23:33:15.930Z,8.27
2019-03-21T23:36:05.063Z,6.87
2019-03-21T23:38:53.463Z,6.77
2019-03-21T23:41:41.854Z,8.00
2019-03-21T23:44:30.276Z,5.90
2019-03-21T23:47:18.426Z,5.90
2019-03-21T23:50:11.681Z,6.50
2019-03-21T23:53:00.000Z,6.00
2019-03-21T23:55:48.019Z,7.67
2019-03-21T23:58:36.361Z,5.67
